Pemaquid Point Lighthouse, ME

43° 50' 13"N, 69° 30' 22"W, Elevation 40 ft.
Eastern Time

Hourly observations for the last 72 hours

Date Time Temperature (°F) Humi-
dity

(%)
Wind
(mph)
Pressure Rain (in) Sun
(W/m2)
UV ET
(in)
Air Dew 6 Hour 1 Hr 3 Hr 6 Hr Day
Alt
(in)
Sea
Level

(mb)
Max Min
16 21:00 61.6 60.4 96 Calm 29.66 1004.6 1.18 0 0.0 0.020
16 20:00 61.4 60.2 62.2 61.1 96 Calm 29.67 1004.6 1.18 0 0.0 0.020
16 19:00 61.7 60.3 95 Calm 29.68 1005.1 1.18 0 0.0 0.020
16 18:00 61.3 60.2 96 Calm 29.67 1004.9 1.18 0 0.0 0.020
16 17:00 61.3 60.2 96 Calm 29.69 1005.4 1.18 86 0.0 0.017
16 16:00 61.9 60.5 95 Calm 29.69 1005.5 1.18 158 0.7 0.011
16 15:00 61.3 60.4 97 Calm 29.71 1006.0 1.18 155 0.8 0.008
16 14:00 61.3 60.4 61.3 59.5 97 Calm 29.72 1006.3 0.32 1.18 167 1.1 0.005
16 13:00 60.8 60.2 98 Calm 29.74 1007.1 1.18 116 0.9 0.003
16 12:00 60.6 60.0 98 Calm 29.77 1008.1 1.18 90 0.7 0.002
16 11:00 60.4 59.8 98 Calm 29.78 1008.6 0.32 1.18 42 0.0 0.001
16 10:00 60.2 59.6 98 Calm 29.81 1009.3 0.01 1.18 65 0.0 0.000
16 09:00 59.9 59.3 98 Calm 29.82 1009.7 0.31 1.17 7 0.0 0.000
16 08:00 59.8 59.2 60.1 59.6 98 Calm 29.83 1010.0 0.56 0.86 0.86 0.86 0 0.0 0.000
16 07:00 59.9 59.0 97 S 18 G 21 29.81 1009.6 0.21 0.30 0 0.0 0.000
16 06:00 59.8 58.9 97 S 14 G 17 29.81 1009.5 0.09 0.09 0 0.0 0.000
16 05:00 59.9 59.0 97 S 13 G 16 29.82 1009.9 0.00 0 0.0 0.000
16 04:00 60.1 59.2 97 S 15 G 18 29.83 1010.1 0.00 0 0.0 0.000
16 03:00 59.9 58.8 96 SSE 10 G 12 29.84 1010.6 0.00 0 0.0 0.000
16 02:00 59.6 58.5 59.8 59.2 96 SE 9 G 12 29.85 1011.0 0.00 0 0.0 0.000
16 01:00 59.3 58.2 96 ESE 8 G 9 29.86 1011.4 0.00 0 0.0 0.000
16 00:00 59.5 58.1 95 ESE 7 G 9 29.89 1012.2 0.00 0 0.0 0.026
15 23:00 59.6 58.2 95 ESE 8 G 10 29.87 1011.6 0.00 0 0.0 0.026
15 22:00 59.6 58.2 95 S 5 G 7 29.91 1013.0 0.00 0 0.0 0.026
15 21:00 59.5 58.1 95 S 4 G 5 29.92 1013.4 0.00 0 0.0 0.026
15 20:00 59.4 58.0 60.4 59.1 95 S 5 G 7 29.91 1012.9 0.00 0 0.0 0.026
15 19:00 59.5 58.1 95 S 6 G 8 29.91 1013.0 0.00 0 0.0 0.026
15 18:00 59.2 57.8 95 S 5 G 7 29.91 1013.0 0.00 0 0.0 0.026
15 17:00 59.6 58.2 95 S 5 G 8 29.90 1012.6 0.00 11 0.0 0.025
15 16:00 59.6 57.6 93 SE 5 G 6 29.91 1012.8 0.00 86 0.0 0.023
15 15:00 59.8 57.5 92 SE 4 G 5 29.91 1012.8 0.00 105 0.6 0.019
15 14:00 59.4 57.4 59.4 57.0 93 E 3 G 5 29.91 1013.0 0.00 306 1.5 0.014
15 13:00 58.6 56.9 94 ESE 3 G 4 29.92 1013.4 0.00 109 0.8 0.012
15 12:00 58.2 56.2 93 SE 2 G 4 29.95 1014.2 0.00 67 0.6 0.010
15 11:00 57.9 56.2 94 ESE 4 G 6 29.95 1014.2 0.00 102 0.7 0.008
15 10:00 57.3 55.6 94 ESE 6 G 8 29.95 1014.3 0.00 63 0.5 0.007
15 09:00 57.1 55.1 93 E 8 G 10 29.95 1014.2 0.00 35 0.0 0.006
15 08:00 57.2 55.2 59.7 57.1 93 E 10 G 12 29.94 1014.1 0.00 21 0.0 0.005
15 07:00 57.4 55.4 93 E 12 G 13 29.92 1013.4 0.00 0 0.0 0.004
15 06:00 57.7 55.7 93 E 12 G 15 29.93 1013.5 0.00 0 0.0 0.003
15 05:00 58.1 55.8 92 E 12 G 14 29.91 1012.9 0.00 0 0.0 0.002
15 04:00 58.5 56.5 93 E 13 G 15 29.91 1012.8 0.00 0 0.0 0.001
15 03:00 59.3 57.0 92 ENE 13 G 15 29.91 1012.8 0.00 0 0.0 0.000
15 02:00 59.5 57.2 61.4 59.3 92 ENE 5 G 7 29.93 1013.4 0.00 0 0.0 0.000
15 01:00 59.5 57.5 93 NE 4 G 8 29.91 1012.9 0.00 0 0.0 0.000
15 00:00 59.4 57.7 94 E 2 G 4 29.90 1012.7 0.00 0 0.0 0.095
14 23:00 60.0 58.0 93 ENE 4 G 6 29.91 1013.0 0.00 0 0.0 0.095
14 22:00 60.5 58.5 93 ENE 3 G 4 29.90 1012.5 0.00 0 0.0 0.095
14 21:00 61.3 59.0 92 ENE 5 G 9 29.89 1012.3 0.00 0 0.0 0.094
14 20:00 61.4 59.1 75.5 61.4 92 NE 3 G 6 29.90 1012.4 0.00 0 0.0 0.093
14 19:00 62.3 59.3 90 E 10 G 12 29.88 1011.8 0.00 0 0.0 0.092
14 18:00 64.8 60.5 86 NE 3 G 4 29.84 1010.7 0.00 0 0.0 0.091
14 17:00 66.0 60.7 83 ESE 4 G 5 29.84 1010.4 0.00 58 0.0 0.086
14 16:00 72.9 63.7 73 ESE 6 G 11 29.84 1010.4 0.00 346 0.8 0.076
14 15:00 75.1 62.5 65 NW 8 G 16 29.83 1010.2 0.00 299 1.3 0.061
14 14:00 75.2 63.9 75.3 57.6 68 NW 7 G 15 29.83 1010.3 0.00 487 2.1 0.044
14 13:00 74.0 62.8 68 N 8 G 15 29.85 1010.8 0.00 522 2.6 0.028
14 12:00 73.2 64.0 73 NNW 7 G 19 29.86 1011.3 0.00 636 2.5 0.012
14 11:00 71.0 63.1 76 N 11 G 17 29.86 1011.4 0.00 563 2.1 0.003
14 10:00 66.3 62.6 88 N 6 G 14 29.87 1011.6 0.00 47 0.0 0.002
14 09:00 61.6 60.4 96 N 6 G 11 29.88 1011.8 0.00 37 0.0 0.001
14 08:00 57.6 56.8 59.0 55.3 97 N 4 G 10 29.87 1011.6 0.00 26 0.0 0.000
14 07:00 55.3 54.2 96 NW 3 G 6 29.85 1011.0 0.00 7 0.0 0.000
14 06:00 56.4 55.3 96 N 0 G 3 29.85 1011.0 0.00 0 0.0 0.000
14 05:00 57.8 56.7 96 NNW 3 G 7 29.84 1010.4 0.00 0 0.0 0.000
14 04:00 58.0 56.9 96 W 5 G 7 29.84 1010.5 0.00 0 0.0 0.000
14 03:00 58.9 57.5 95 W 2 G 7 29.85 1010.7 0.00 0 0.0 0.000
14 02:00 58.2 56.8 61.3 57.1 95 W 3 G 7 29.87 1011.5 0.00 0 0.0 0.000
14 01:00 58.2 56.8 95 SW 1 G 3 29.86 1011.3 0.00 0 0.0 0.000
14 00:00 58.2 56.5 94 SSW 1 G 4 29.87 1011.6 0.00 0 0.0 0.075
13 23:00 59.3 57.3 93 SW 1 G 4 29.89 1012.3 0.00 0 0.0 0.075
13 22:00 60.4 58.4 93 WSW 3 G 7 29.91 1012.8 0.00 0 0.0 0.075

Data generated by WxSolution Version 1.9.1.8, Build 2020.02.16.